sensor_id;sensor_type;location;lat;lon;timestamp;P1;durP1;ratioP1;P2;durP2;ratioP2
74223;SDS011;62585;49.706;18.216;2022-08-21T00:00:55;12.70;;;7.10;;
74223;SDS011;62585;49.706;18.216;2022-08-21T00:03:21;13.80;;;7.03;;
74223;SDS011;62585;49.706;18.216;2022-08-21T00:05:48;13.68;;;7.75;;
74223;SDS011;62585;49.706;18.216;2022-08-21T00:08:19;13.80;;;7.22;;
74223;SDS011;62585;49.706;18.216;2022-08-21T00:10:46;13.38;;;6.95;;
74223;SDS011;62585;49.706;18.216;2022-08-21T00:13:12;12.05;;;7.05;;
74223;SDS011;62585;49.706;18.216;2022-08-21T00:15:40;14.13;;;6.85;;
74223;SDS011;62585;49.706;18.216;2022-08-21T00:18:07;11.95;;;6.25;;
74223;SDS011;62585;49.706;18.216;2022-08-21T00:20:36;8.65;;;5.25;;
74223;SDS011;62585;49.706;18.216;2022-08-21T00:23:03;10.45;;;6.10;;
74223;SDS011;62585;49.706;18.216;2022-08-21T00:25:30;10.55;;;5.90;;
74223;SDS011;62585;49.706;18.216;2022-08-21T00:27:57;11.25;;;5.50;;
74223;SDS011;62585;49.706;18.216;2022-08-21T00:30:23;8.68;;;5.45;;
74223;SDS011;62585;49.706;18.216;2022-08-21T00:32:50;10.25;;;5.80;;
74223;SDS011;62585;49.706;18.216;2022-08-21T00:35:19;11.60;;;6.15;;
74223;SDS011;62585;49.706;18.216;2022-08-21T00:37:48;11.07;;;5.72;;
74223;SDS011;62585;49.706;18.216;2022-08-21T00:40:15;8.85;;;5.57;;
74223;SDS011;62585;49.706;18.216;2022-08-21T00:42:43;10.95;;;5.65;;
74223;SDS011;62585;49.706;18.216;2022-08-21T00:45:10;11.48;;;5.95;;
74223;SDS011;62585;49.706;18.216;2022-08-21T00:47:37;13.23;;;6.30;;
74223;SDS011;62585;49.706;18.216;2022-08-21T00:50:04;12.60;;;5.72;;
74223;SDS011;62585;49.706;18.216;2022-08-21T00:52:32;10.30;;;5.65;;
74223;SDS011;62585;49.706;18.216;2022-08-21T00:55:01;10.02;;;5.95;;
74223;SDS011;62585;49.706;18.216;2022-08-21T00:57:30;10.82;;;5.53;;
74223;SDS011;62585;49.706;18.216;2022-08-21T01:00:04;12.63;;;6.05;;
74223;SDS011;62585;49.706;18.216;2022-08-21T01:02:32;13.60;;;6.40;;
74223;SDS011;62585;49.706;18.216;2022-08-21T01:04:59;15.32;;;6.55;;
74223;SDS011;62585;49.706;18.216;2022-08-21T01:07:24;12.02;;;6.15;;
74223;SDS011;62585;49.706;18.216;2022-08-21T01:09:51;14.80;;;7.03;;
74223;SDS011;62585;49.706;18.216;2022-08-21T01:12:17;14.80;;;7.35;;
74223;SDS011;62585;49.706;18.216;2022-08-21T01:14:44;12.85;;;6.72;;
74223;SDS011;62585;49.706;18.216;2022-08-21T01:17:11;11.63;;;6.35;;
74223;SDS011;62585;49.706;18.216;2022-08-21T01:19:39;11.70;;;6.18;;
74223;SDS011;62585;49.706;18.216;2022-08-21T01:22:05;12.68;;;6.40;;
74223;SDS011;62585;49.706;18.216;2022-08-21T01:26:58;12.85;;;6.38;;
74223;SDS011;62585;49.706;18.216;2022-08-21T01:32:17;12.15;;;6.63;;
74223;SDS011;62585;49.706;18.216;2022-08-21T01:34:45;11.18;;;5.47;;
74223;SDS011;62585;49.706;18.216;2022-08-21T01:37:12;10.65;;;5.57;;
74223;SDS011;62585;49.706;18.216;2022-08-21T01:39:39;10.27;;;5.25;;
74223;SDS011;62585;49.706;18.216;2022-08-21T01:44:32;12.45;;;5.50;;
74223;SDS011;62585;49.706;18.216;2022-08-21T01:46:59;12.70;;;5.32;;
74223;SDS011;62585;49.706;18.216;2022-08-21T01:49:27;12.25;;;5.40;;
74223;SDS011;62585;49.706;18.216;2022-08-21T01:51:53;11.90;;;5.85;;
74223;SDS011;62585;49.706;18.216;2022-08-21T01:54:19;8.60;;;4.50;;
74223;SDS011;62585;49.706;18.216;2022-08-21T01:56:46;10.60;;;5.60;;
74223;SDS011;62585;49.706;18.216;2022-08-21T01:59:14;9.07;;;5.15;;
74223;SDS011;62585;49.706;18.216;2022-08-21T02:01:40;12.48;;;5.60;;
74223;SDS011;62585;49.706;18.216;2022-08-21T02:04:07;8.80;;;5.32;;
74223;SDS011;62585;49.706;18.216;2022-08-21T02:06:34;9.77;;;5.30;;
74223;SDS011;62585;49.706;18.216;2022-08-21T02:09:02;10.65;;;5.38;;
74223;SDS011;62585;49.706;18.216;2022-08-21T02:11:29;10.82;;;5.80;;
74223;SDS011;62585;49.706;18.216;2022-08-21T02:13:55;9.05;;;5.15;;
74223;SDS011;62585;49.706;18.216;2022-08-21T02:16:21;9.38;;;5.13;;
74223;SDS011;62585;49.706;18.216;2022-08-21T02:18:47;8.65;;;4.57;;
74223;SDS011;62585;49.706;18.216;2022-08-21T02:21:14;10.20;;;5.15;;
74223;SDS011;62585;49.706;18.216;2022-08-21T02:23:40;10.05;;;5.35;;
74223;SDS011;62585;49.706;18.216;2022-08-21T02:26:06;10.70;;;5.65;;
74223;SDS011;62585;49.706;18.216;2022-08-21T02:28:34;13.52;;;5.30;;
74223;SDS011;62585;49.706;18.216;2022-08-21T02:31:01;9.43;;;5.22;;
74223;SDS011;62585;49.706;18.216;2022-08-21T02:33:27;10.63;;;5.28;;
74223;SDS011;62585;49.706;18.216;2022-08-21T02:35:53;7.55;;;4.55;;
74223;SDS011;62585;49.706;18.216;2022-08-21T02:38:28;12.07;;;5.28;;
74223;SDS011;62585;49.706;18.216;2022-08-21T02:40:58;9.95;;;4.65;;
74223;SDS011;62585;49.706;18.216;2022-08-21T02:43:25;9.30;;;4.63;;
74223;SDS011;62585;49.706;18.216;2022-08-21T02:45:52;11.35;;;5.50;;
74223;SDS011;62585;49.706;18.216;2022-08-21T02:48:20;9.43;;;4.55;;
74223;SDS011;62585;49.706;18.216;2022-08-21T02:50:51;9.27;;;4.68;;
74223;SDS011;62585;49.706;18.216;2022-08-21T02:53:19;10.45;;;5.45;;
74223;SDS011;62585;49.706;18.216;2022-08-21T02:55:45;9.23;;;4.65;;
74223;SDS011;62585;49.706;18.216;2022-08-21T02:58:13;10.88;;;5.30;;
74223;SDS011;62585;49.706;18.216;2022-08-21T03:00:42;9.68;;;4.32;;
74223;SDS011;62585;49.706;18.216;2022-08-21T03:03:09;8.05;;;4.20;;
74223;SDS011;62585;49.706;18.216;2022-08-21T03:05:36;9.57;;;4.45;;
74223;SDS011;62585;49.706;18.216;2022-08-21T03:08:04;4.47;;;2.00;;
74223;SDS011;62585;49.706;18.216;2022-08-21T03:10:34;3.42;;;1.35;;
74223;SDS011;62585;49.706;18.216;2022-08-21T03:13:01;2.90;;;1.33;;
74223;SDS011;62585;49.706;18.216;2022-08-21T03:15:29;2.72;;;1.17;;
74223;SDS011;62585;49.706;18.216;2022-08-21T03:17:55;3.17;;;1.30;;
74223;SDS011;62585;49.706;18.216;2022-08-21T03:20:23;2.50;;;1.10;;
74223;SDS011;62585;49.706;18.216;2022-08-21T03:22:51;3.53;;;1.27;;
74223;SDS011;62585;49.706;18.216;2022-08-21T03:25:18;2.08;;;0.80;;
74223;SDS011;62585;49.706;18.216;2022-08-21T03:27:46;2.30;;;0.80;;
74223;SDS011;62585;49.706;18.216;2022-08-21T03:30:14;3.10;;;0.90;;
74223;SDS011;62585;49.706;18.216;2022-08-21T03:32:41;1.00;;;0.85;;
74223;SDS011;62585;49.706;18.216;2022-08-21T03:35:07;0.98;;;0.60;;
74223;SDS011;62585;49.706;18.216;2022-08-21T03:40:00;5.50;;;0.82;;
74223;SDS011;62585;49.706;18.216;2022-08-21T03:42:26;0.85;;;0.60;;
74223;SDS011;62585;49.706;18.216;2022-08-21T03:44:52;3.53;;;0.93;;
74223;SDS011;62585;49.706;18.216;2022-08-21T03:47:18;1.50;;;1.10;;
74223;SDS011;62585;49.706;18.216;2022-08-21T03:49:44;2.47;;;0.90;;
74223;SDS011;62585;49.706;18.216;2022-08-21T03:52:10;1.17;;;0.80;;
74223;SDS011;62585;49.706;18.216;2022-08-21T03:54:36;3.15;;;1.25;;
74223;SDS011;62585;49.706;18.216;2022-08-21T03:57:02;1.95;;;1.02;;
74223;SDS011;62585;49.706;18.216;2022-08-21T03:59:28;3.97;;;1.08;;
74223;SDS011;62585;49.706;18.216;2022-08-21T04:01:55;1.83;;;0.60;;
74223;SDS011;62585;49.706;18.216;2022-08-21T04:04:24;3.53;;;0.93;;
74223;SDS011;62585;49.706;18.216;2022-08-21T04:06:51;2.15;;;0.90;;
74223;SDS011;62585;49.706;18.216;2022-08-21T04:09:17;2.03;;;0.80;;
74223;SDS011;62585;49.706;18.216;2022-08-21T04:11:44;3.47;;;0.95;;
74223;SDS011;62585;49.706;18.216;2022-08-21T04:16:37;1.73;;;1.08;;
74223;SDS011;62585;49.706;18.216;2022-08-21T04:19:03;1.35;;;0.85;;
74223;SDS011;62585;49.706;18.216;2022-08-21T04:21:29;2.22;;;0.77;;
74223;SDS011;62585;49.706;18.216;2022-08-21T04:23:56;2.83;;;0.90;;
74223;SDS011;62585;49.706;18.216;2022-08-21T04:26:22;1.83;;;0.73;;
74223;SDS011;62585;49.706;18.216;2022-08-21T04:28:48;1.38;;;0.90;;
74223;SDS011;62585;49.706;18.216;2022-08-21T04:31:14;1.67;;;0.95;;
74223;SDS011;62585;49.706;18.216;2022-08-21T04:33:40;1.55;;;0.68;;
74223;SDS011;62585;49.706;18.216;2022-08-21T04:36:06;1.95;;;0.57;;
74223;SDS011;62585;49.706;18.216;2022-08-21T04:38:33;3.95;;;0.90;;
74223;SDS011;62585;49.706;18.216;2022-08-21T04:40:59;1.92;;;1.02;;
74223;SDS011;62585;49.706;18.216;2022-08-21T04:43:25;2.00;;;0.85;;
74223;SDS011;62585;49.706;18.216;2022-08-21T04:45:51;1.13;;;0.55;;
74223;SDS011;62585;49.706;18.216;2022-08-21T04:48:19;1.98;;;0.90;;
74223;SDS011;62585;49.706;18.216;2022-08-21T04:50:58;3.45;;;0.90;;
74223;SDS011;62585;49.706;18.216;2022-08-21T04:53:41;1.58;;;0.80;;
74223;SDS011;62585;49.706;18.216;2022-08-21T04:56:12;1.52;;;0.90;;
74223;SDS011;62585;49.706;18.216;2022-08-21T04:58:44;1.50;;;0.70;;
74223;SDS011;62585;49.706;18.216;2022-08-21T05:01:12;3.03;;;0.82;;
74223;SDS011;62585;49.706;18.216;2022-08-21T05:03:40;2.80;;;1.13;;
74223;SDS011;62585;49.706;18.216;2022-08-21T05:06:08;2.88;;;1.25;;
74223;SDS011;62585;49.706;18.216;2022-08-21T05:08:37;2.17;;;0.68;;
74223;SDS011;62585;49.706;18.216;2022-08-21T05:11:04;2.33;;;1.02;;
74223;SDS011;62585;49.706;18.216;2022-08-21T05:13:32;3.17;;;1.90;;
74223;SDS011;62585;49.706;18.216;2022-08-21T05:15:58;2.97;;;1.88;;
74223;SDS011;62585;49.706;18.216;2022-08-21T05:18:24;2.38;;;1.17;;
74223;SDS011;62585;49.706;18.216;2022-08-21T05:20:50;2.60;;;1.20;;
74223;SDS011;62585;49.706;18.216;2022-08-21T05:23:16;3.55;;;1.52;;
74223;SDS011;62585;49.706;18.216;2022-08-21T05:25:42;2.28;;;1.08;;
74223;SDS011;62585;49.706;18.216;2022-08-21T05:28:09;3.80;;;1.10;;
74223;SDS011;62585;49.706;18.216;2022-08-21T05:30:35;1.35;;;0.88;;
74223;SDS011;62585;49.706;18.216;2022-08-21T05:33:03;1.10;;;0.75;;
74223;SDS011;62585;49.706;18.216;2022-08-21T05:35:31;1.90;;;0.90;;
74223;SDS011;62585;49.706;18.216;2022-08-21T05:37:58;1.58;;;0.90;;
74223;SDS011;62585;49.706;18.216;2022-08-21T05:40:25;1.80;;;1.13;;
74223;SDS011;62585;49.706;18.216;2022-08-21T05:42:52;2.55;;;1.17;;
74223;SDS011;62585;49.706;18.216;2022-08-21T05:45:19;1.45;;;0.80;;
74223;SDS011;62585;49.706;18.216;2022-08-21T05:47:46;2.47;;;1.08;;
74223;SDS011;62585;49.706;18.216;2022-08-21T05:50:12;1.40;;;0.93;;
74223;SDS011;62585;49.706;18.216;2022-08-21T05:52:38;1.88;;;0.80;;
74223;SDS011;62585;49.706;18.216;2022-08-21T05:55:04;1.55;;;0.77;;
74223;SDS011;62585;49.706;18.216;2022-08-21T05:57:30;1.67;;;0.85;;
74223;SDS011;62585;49.706;18.216;2022-08-21T05:59:56;1.42;;;0.75;;
74223;SDS011;62585;49.706;18.216;2022-08-21T06:02:22;1.67;;;0.93;;
74223;SDS011;62585;49.706;18.216;2022-08-21T06:04:48;1.20;;;0.70;;
74223;SDS011;62585;49.706;18.216;2022-08-21T06:07:14;2.55;;;0.80;;
74223;SDS011;62585;49.706;18.216;2022-08-21T06:09:40;2.03;;;1.00;;
74223;SDS011;62585;49.706;18.216;2022-08-21T06:12:07;1.15;;;0.63;;
74223;SDS011;62585;49.706;18.216;2022-08-21T06:14:36;1.08;;;0.63;;
74223;SDS011;62585;49.706;18.216;2022-08-21T06:17:04;1.35;;;0.65;;
74223;SDS011;62585;49.706;18.216;2022-08-21T06:19:31;1.08;;;0.75;;
74223;SDS011;62585;49.706;18.216;2022-08-21T06:21:57;1.00;;;0.57;;
74223;SDS011;62585;49.706;18.216;2022-08-21T06:24:23;3.53;;;0.75;;
74223;SDS011;62585;49.706;18.216;2022-08-21T06:26:53;1.67;;;0.80;;
74223;SDS011;62585;49.706;18.216;2022-08-21T06:29:19;2.80;;;0.80;;
74223;SDS011;62585;49.706;18.216;2022-08-21T06:31:46;2.42;;;0.70;;
74223;SDS011;62585;49.706;18.216;2022-08-21T06:34:14;0.68;;;0.57;;
74223;SDS011;62585;49.706;18.216;2022-08-21T06:36:40;1.15;;;0.50;;
74223;SDS011;62585;49.706;18.216;2022-08-21T06:39:07;1.23;;;0.73;;
74223;SDS011;62585;49.706;18.216;2022-08-21T06:41:33;2.75;;;0.80;;
74223;SDS011;62585;49.706;18.216;2022-08-21T06:43:59;1.33;;;0.90;;
74223;SDS011;62585;49.706;18.216;2022-08-21T06:46:26;1.10;;;0.68;;
74223;SDS011;62585;49.706;18.216;2022-08-21T06:48:54;1.33;;;0.73;;
74223;SDS011;62585;49.706;18.216;2022-08-21T06:51:20;2.45;;;0.70;;
74223;SDS011;62585;49.706;18.216;2022-08-21T06:53:48;2.42;;;0.65;;
74223;SDS011;62585;49.706;18.216;2022-08-21T06:56:16;0.77;;;0.55;;
74223;SDS011;62585;49.706;18.216;2022-08-21T06:58:42;0.73;;;0.30;;
74223;SDS011;62585;49.706;18.216;2022-08-21T07:01:07;1.73;;;0.50;;
74223;SDS011;62585;49.706;18.216;2022-08-21T07:03:37;1.00;;;0.50;;
74223;SDS011;62585;49.706;18.216;2022-08-21T07:06:05;1.05;;;0.50;;
74223;SDS011;62585;49.706;18.216;2022-08-21T07:08:32;0.30;;;0.30;;
74223;SDS011;62585;49.706;18.216;2022-08-21T07:11:00;2.05;;;0.30;;
74223;SDS011;62585;49.706;18.216;2022-08-21T07:13:28;0.60;;;0.40;;
74223;SDS011;62585;49.706;18.216;2022-08-21T07:15:54;0.55;;;0.40;;
74223;SDS011;62585;49.706;18.216;2022-08-21T07:18:20;0.55;;;0.50;;
74223;SDS011;62585;49.706;18.216;2022-08-21T07:20:46;0.20;;;0.20;;
74223;SDS011;62585;49.706;18.216;2022-08-21T07:23:16;0.73;;;0.40;;
74223;SDS011;62585;49.706;18.216;2022-08-21T07:25:48;0.60;;;0.30;;
74223;SDS011;62585;49.706;18.216;2022-08-21T07:28:14;0.43;;;0.32;;
74223;SDS011;62585;49.706;18.216;2022-08-21T07:30:40;0.65;;;0.50;;
74223;SDS011;62585;49.706;18.216;2022-08-21T07:33:06;0.45;;;0.35;;
74223;SDS011;62585;49.706;18.216;2022-08-21T07:35:34;0.77;;;0.40;;
74223;SDS011;62585;49.706;18.216;2022-08-21T07:38:00;0.63;;;0.32;;
74223;SDS011;62585;49.706;18.216;2022-08-21T07:40:26;0.55;;;0.40;;
74223;SDS011;62585;49.706;18.216;2022-08-21T07:42:52;0.60;;;0.40;;
74223;SDS011;62585;49.706;18.216;2022-08-21T07:45:19;0.45;;;0.40;;
74223;SDS011;62585;49.706;18.216;2022-08-21T07:47:47;0.30;;;0.30;;
74223;SDS011;62585;49.706;18.216;2022-08-21T07:50:14;0.20;;;0.20;;
74223;SDS011;62585;49.706;18.216;2022-08-21T07:52:40;0.30;;;0.30;;
74223;SDS011;62585;49.706;18.216;2022-08-21T07:55:08;0.55;;;0.32;;
74223;SDS011;62585;49.706;18.216;2022-08-21T07:57:36;1.05;;;0.55;;
74223;SDS011;62585;49.706;18.216;2022-08-21T08:00:06;0.47;;;0.32;;
74223;SDS011;62585;49.706;18.216;2022-08-21T08:02:34;0.40;;;0.30;;
74223;SDS011;62585;49.706;18.216;2022-08-21T08:05:01;0.20;;;0.20;;
74223;SDS011;62585;49.706;18.216;2022-08-21T08:07:32;0.43;;;0.30;;
74223;SDS011;62585;49.706;18.216;2022-08-21T08:12:24;0.30;;;0.25;;
74223;SDS011;62585;49.706;18.216;2022-08-21T08:14:56;0.35;;;0.17;;
74223;SDS011;62585;49.706;18.216;2022-08-21T08:17:22;0.20;;;0.20;;
74223;SDS011;62585;49.706;18.216;2022-08-21T08:19:49;0.38;;;0.30;;
74223;SDS011;62585;49.706;18.216;2022-08-21T08:22:16;0.20;;;0.20;;
74223;SDS011;62585;49.706;18.216;2022-08-21T08:24:45;0.30;;;0.20;;
74223;SDS011;62585;49.706;18.216;2022-08-21T08:27:11;0.10;;;0.10;;
74223;SDS011;62585;49.706;18.216;2022-08-21T08:29:37;0.10;;;0.10;;
74223;SDS011;62585;49.706;18.216;2022-08-21T08:32:04;0.68;;;0.20;;
74223;SDS011;62585;49.706;18.216;2022-08-21T08:34:32;0.10;;;0.10;;
74223;SDS011;62585;49.706;18.216;2022-08-21T08:36:59;0.35;;;0.30;;
74223;SDS011;62585;49.706;18.216;2022-08-21T08:39:25;0.10;;;0.10;;
74223;SDS011;62585;49.706;18.216;2022-08-21T08:44:30;0.10;;;0.10;;
74223;SDS011;62585;49.706;18.216;2022-08-21T08:46:56;0.05;;;0.05;;
74223;SDS011;62585;49.706;18.216;2022-08-21T08:49:29;0.10;;;0.10;;
74223;SDS011;62585;49.706;18.216;2022-08-21T08:52:17;0.00;;;0.00;;
74223;SDS011;62585;49.706;18.216;2022-08-21T08:54:50;0.20;;;0.10;;
74223;SDS011;62585;49.706;18.216;2022-08-21T08:57:21;0.20;;;0.20;;
74223;SDS011;62585;49.706;18.216;2022-08-21T08:59:50;0.30;;;0.20;;
74223;SDS011;62585;49.706;18.216;2022-08-21T09:02:20;0.25;;;0.25;;
74223;SDS011;62585;49.706;18.216;2022-08-21T09:04:49;0.10;;;0.10;;
74223;SDS011;62585;49.706;18.216;2022-08-21T09:12:56;0.05;;;0.05;;
74223;SDS011;62585;49.706;18.216;2022-08-21T09:15:50;0.95;;;0.40;;
74223;SDS011;62585;49.706;18.216;2022-08-21T09:23:53;0.28;;;0.28;;
74223;SDS011;62585;49.706;18.216;2022-08-21T09:26:27;0.75;;;0.32;;
74223;SDS011;62585;49.706;18.216;2022-08-21T09:28:58;0.25;;;0.22;;
74223;SDS011;62585;49.706;18.216;2022-08-21T09:31:27;0.65;;;0.40;;
74223;SDS011;62585;49.706;18.216;2022-08-21T09:36:45;2.30;;;0.40;;
74223;SDS011;62585;49.706;18.216;2022-08-21T09:39:28;0.52;;;0.32;;
74223;SDS011;62585;49.706;18.216;2022-08-21T09:41:58;0.57;;;0.50;;
74223;SDS011;62585;49.706;18.216;2022-08-21T09:44:31;0.38;;;0.13;;
74223;SDS011;62585;49.706;18.216;2022-08-21T09:47:04;0.65;;;0.30;;
74223;SDS011;62585;49.706;18.216;2022-08-21T09:49:35;0.35;;;0.20;;
74223;SDS011;62585;49.706;18.216;2022-08-21T09:52:03;0.25;;;0.20;;
74223;SDS011;62585;49.706;18.216;2022-08-21T09:54:49;0.30;;;0.25;;
74223;SDS011;62585;49.706;18.216;2022-08-21T09:57:28;0.45;;;0.28;;
74223;SDS011;62585;49.706;18.216;2022-08-21T10:00:49;2.75;;;0.30;;
74223;SDS011;62585;49.706;18.216;2022-08-21T10:08:00;1.10;;;0.20;;
74223;SDS011;62585;49.706;18.216;2022-08-21T10:10:28;0.40;;;0.13;;
74223;SDS011;62585;49.706;18.216;2022-08-21T10:31:03;2.85;;;0.73;;
74223;SDS011;62585;49.706;18.216;2022-08-21T10:33:52;0.30;;;0.30;;
74223;SDS011;62585;49.706;18.216;2022-08-21T10:36:33;0.43;;;0.35;;
74223;SDS011;62585;49.706;18.216;2022-08-21T10:49:58;0.85;;;0.60;;
74223;SDS011;62585;49.706;18.216;2022-08-21T10:52:43;0.68;;;0.50;;
74223;SDS011;62585;49.706;18.216;2022-08-21T10:55:21;0.70;;;0.57;;
74223;SDS011;62585;49.706;18.216;2022-08-21T10:57:58;0.98;;;0.65;;
74223;SDS011;62585;49.706;18.216;2022-08-21T11:00:28;0.50;;;0.47;;
74223;SDS011;62585;49.706;18.216;2022-08-21T11:03:16;1.08;;;0.63;;
74223;SDS011;62585;49.706;18.216;2022-08-21T11:05:48;1.13;;;0.73;;
74223;SDS011;62585;49.706;18.216;2022-08-21T11:08:26;0.85;;;0.73;;
74223;SDS011;62585;49.706;18.216;2022-08-21T11:14:04;1.52;;;0.88;;
74223;SDS011;62585;49.706;18.216;2022-08-21T11:16:52;1.10;;;0.80;;
74223;SDS011;62585;49.706;18.216;2022-08-21T11:19:40;1.58;;;0.65;;
74223;SDS011;62585;49.706;18.216;2022-08-21T11:25:06;2.10;;;0.88;;
74223;SDS011;62585;49.706;18.216;2022-08-21T11:30:18;1.73;;;0.80;;
74223;SDS011;62585;49.706;18.216;2022-08-21T11:35:47;1.30;;;0.88;;
74223;SDS011;62585;49.706;18.216;2022-08-21T11:38:27;0.95;;;0.70;;
74223;SDS011;62585;49.706;18.216;2022-08-21T11:41:10;1.75;;;0.73;;
74223;SDS011;62585;49.706;18.216;2022-08-21T11:48:54;1.70;;;0.95;;
74223;SDS011;62585;49.706;18.216;2022-08-21T11:51:42;1.70;;;1.10;;
74223;SDS011;62585;49.706;18.216;2022-08-21T11:57:05;2.40;;;1.80;;
74223;SDS011;62585;49.706;18.216;2022-08-21T12:02:24;2.78;;;1.30;;
74223;SDS011;62585;49.706;18.216;2022-08-21T12:05:01;3.92;;;1.08;;
74223;SDS011;62585;49.706;18.216;2022-08-21T12:07:36;1.98;;;1.40;;
74223;SDS011;62585;49.706;18.216;2022-08-21T12:10:10;1.65;;;1.25;;
74223;SDS011;62585;49.706;18.216;2022-08-21T12:12:39;2.78;;;1.30;;
74223;SDS011;62585;49.706;18.216;2022-08-21T12:15:14;1.42;;;1.00;;
74223;SDS011;62585;49.706;18.216;2022-08-21T12:17:50;2.40;;;1.20;;
74223;SDS011;62585;49.706;18.216;2022-08-21T12:23:31;2.67;;;1.20;;
74223;SDS011;62585;49.706;18.216;2022-08-21T12:26:01;2.78;;;1.27;;
74223;SDS011;62585;49.706;18.216;2022-08-21T12:28:44;2.97;;;1.02;;
74223;SDS011;62585;49.706;18.216;2022-08-21T12:31:28;2.00;;;1.05;;
74223;SDS011;62585;49.706;18.216;2022-08-21T12:34:01;2.63;;;1.42;;
74223;SDS011;62585;49.706;18.216;2022-08-21T12:36:49;2.42;;;1.30;;
74223;SDS011;62585;49.706;18.216;2022-08-21T12:41:51;2.03;;;1.13;;
74223;SDS011;62585;49.706;18.216;2022-08-21T12:44:22;2.42;;;1.20;;
74223;SDS011;62585;49.706;18.216;2022-08-21T12:46:56;2.20;;;1.30;;
74223;SDS011;62585;49.706;18.216;2022-08-21T12:49:39;2.83;;;1.17;;
74223;SDS011;62585;49.706;18.216;2022-08-21T12:52:20;2.95;;;1.45;;
74223;SDS011;62585;49.706;18.216;2022-08-21T12:54:47;2.53;;;1.60;;
74223;SDS011;62585;49.706;18.216;2022-08-21T12:57:20;2.25;;;1.40;;
74223;SDS011;62585;49.706;18.216;2022-08-21T12:59:55;3.55;;;1.85;;
74223;SDS011;62585;49.706;18.216;2022-08-21T13:02:24;2.47;;;1.35;;
74223;SDS011;62585;49.706;18.216;2022-08-21T13:05:06;2.38;;;1.30;;
74223;SDS011;62585;49.706;18.216;2022-08-21T13:07:37;2.92;;;1.45;;
74223;SDS011;62585;49.706;18.216;2022-08-21T13:10:09;2.33;;;1.50;;
74223;SDS011;62585;49.706;18.216;2022-08-21T13:12:43;2.58;;;1.60;;
74223;SDS011;62585;49.706;18.216;2022-08-21T13:15:10;2.60;;;1.60;;
74223;SDS011;62585;49.706;18.216;2022-08-21T13:17:38;2.17;;;1.23;;
74223;SDS011;62585;49.706;18.216;2022-08-21T13:20:09;2.65;;;1.50;;
74223;SDS011;62585;49.706;18.216;2022-08-21T13:22:44;3.70;;;1.20;;
74223;SDS011;62585;49.706;18.216;2022-08-21T13:25:11;1.95;;;1.30;;
74223;SDS011;62585;49.706;18.216;2022-08-21T13:27:41;1.90;;;1.20;;
74223;SDS011;62585;49.706;18.216;2022-08-21T13:32:46;1.85;;;1.23;;
74223;SDS011;62585;49.706;18.216;2022-08-21T13:35:26;1.95;;;1.20;;
74223;SDS011;62585;49.706;18.216;2022-08-21T13:38:11;1.77;;;1.00;;
74223;SDS011;62585;49.706;18.216;2022-08-21T13:40:47;2.17;;;1.23;;
74223;SDS011;62585;49.706;18.216;2022-08-21T13:43:17;2.25;;;1.38;;
74223;SDS011;62585;49.706;18.216;2022-08-21T13:45:53;2.60;;;1.52;;
74223;SDS011;62585;49.706;18.216;2022-08-21T13:48:22;3.22;;;1.52;;
74223;SDS011;62585;49.706;18.216;2022-08-21T13:50:50;5.78;;;1.63;;
74223;SDS011;62585;49.706;18.216;2022-08-21T13:53:36;3.00;;;1.38;;
74223;SDS011;62585;49.706;18.216;2022-08-21T13:58:50;2.55;;;1.35;;
74223;SDS011;62585;49.706;18.216;2022-08-21T14:03:53;4.28;;;1.15;;
74223;SDS011;62585;49.706;18.216;2022-08-21T14:06:26;1.52;;;0.98;;
74223;SDS011;62585;49.706;18.216;2022-08-21T14:09:00;1.67;;;1.27;;
74223;SDS011;62585;49.706;18.216;2022-08-21T14:11:33;1.80;;;0.98;;
74223;SDS011;62585;49.706;18.216;2022-08-21T14:14:05;2.88;;;1.65;;
74223;SDS011;62585;49.706;18.216;2022-08-21T14:16:57;1.92;;;1.25;;
74223;SDS011;62585;49.706;18.216;2022-08-21T14:19:42;2.88;;;1.90;;
74223;SDS011;62585;49.706;18.216;2022-08-21T14:25:49;2.88;;;1.45;;
74223;SDS011;62585;49.706;18.216;2022-08-21T14:27:52;2.22;;;1.10;;
74223;SDS011;62585;49.706;18.216;2022-08-21T14:30:30;1.75;;;1.13;;
74223;SDS011;62585;49.706;18.216;2022-08-21T14:33:01;2.95;;;1.52;;
74223;SDS011;62585;49.706;18.216;2022-08-21T14:35:29;2.70;;;1.20;;
74223;SDS011;62585;49.706;18.216;2022-08-21T14:37:56;2.17;;;1.48;;
74223;SDS011;62585;49.706;18.216;2022-08-21T14:40:24;1.85;;;1.20;;
74223;SDS011;62585;49.706;18.216;2022-08-21T14:42:51;1.42;;;1.00;;
74223;SDS011;62585;49.706;18.216;2022-08-21T14:45:18;3.28;;;1.73;;
74223;SDS011;62585;49.706;18.216;2022-08-21T14:47:51;4.13;;;1.65;;
74223;SDS011;62585;49.706;18.216;2022-08-21T14:50:17;2.25;;;1.35;;
74223;SDS011;62585;49.706;18.216;2022-08-21T14:52:45;3.40;;;1.45;;
74223;SDS011;62585;49.706;18.216;2022-08-21T14:55:11;2.90;;;1.35;;
74223;SDS011;62585;49.706;18.216;2022-08-21T14:57:41;2.60;;;1.60;;
74223;SDS011;62585;49.706;18.216;2022-08-21T15:00:10;2.58;;;1.30;;
74223;SDS011;62585;49.706;18.216;2022-08-21T15:02:37;2.78;;;1.30;;
74223;SDS011;62585;49.706;18.216;2022-08-21T15:05:03;3.28;;;1.60;;
74223;SDS011;62585;49.706;18.216;2022-08-21T15:07:32;3.20;;;1.98;;
74223;SDS011;62585;49.706;18.216;2022-08-21T15:09:58;3.55;;;1.42;;
74223;SDS011;62585;49.706;18.216;2022-08-21T15:12:24;2.35;;;1.60;;
74223;SDS011;62585;49.706;18.216;2022-08-21T15:14:50;3.17;;;1.50;;
74223;SDS011;62585;49.706;18.216;2022-08-21T15:17:16;3.10;;;1.75;;
74223;SDS011;62585;49.706;18.216;2022-08-21T15:19:43;4.18;;;2.10;;
74223;SDS011;62585;49.706;18.216;2022-08-21T15:22:09;1.75;;;1.23;;
74223;SDS011;62585;49.706;18.216;2022-08-21T15:24:35;3.88;;;1.48;;
74223;SDS011;62585;49.706;18.216;2022-08-21T15:27:02;2.22;;;1.42;;
74223;SDS011;62585;49.706;18.216;2022-08-21T15:29:30;2.33;;;1.40;;
74223;SDS011;62585;49.706;18.216;2022-08-21T15:31:57;3.78;;;1.60;;
74223;SDS011;62585;49.706;18.216;2022-08-21T15:34:29;2.13;;;1.20;;
74223;SDS011;62585;49.706;18.216;2022-08-21T15:36:56;4.25;;;1.50;;
74223;SDS011;62585;49.706;18.216;2022-08-21T15:39:27;3.00;;;1.33;;
74223;SDS011;62585;49.706;18.216;2022-08-21T15:41:53;2.90;;;1.50;;
74223;SDS011;62585;49.706;18.216;2022-08-21T15:44:19;2.75;;;1.60;;
74223;SDS011;62585;49.706;18.216;2022-08-21T15:46:45;3.05;;;1.45;;
74223;SDS011;62585;49.706;18.216;2022-08-21T15:49:12;2.47;;;1.33;;
74223;SDS011;62585;49.706;18.216;2022-08-21T15:51:37;4.57;;;1.77;;
74223;SDS011;62585;49.706;18.216;2022-08-21T15:54:03;1.85;;;1.10;;
74223;SDS011;62585;49.706;18.216;2022-08-21T15:56:39;3.53;;;1.73;;
74223;SDS011;62585;49.706;18.216;2022-08-21T15:59:14;2.63;;;1.08;;
74223;SDS011;62585;49.706;18.216;2022-08-21T16:04:15;3.50;;;1.45;;
74223;SDS011;62585;49.706;18.216;2022-08-21T16:06:49;4.25;;;1.73;;
74223;SDS011;62585;49.706;18.216;2022-08-21T16:09:15;2.35;;;1.80;;
74223;SDS011;62585;49.706;18.216;2022-08-21T16:11:41;1.95;;;1.23;;
74223;SDS011;62585;49.706;18.216;2022-08-21T16:14:08;2.65;;;1.70;;
74223;SDS011;62585;49.706;18.216;2022-08-21T16:16:37;4.05;;;2.08;;
74223;SDS011;62585;49.706;18.216;2022-08-21T16:19:03;2.80;;;1.50;;
74223;SDS011;62585;49.706;18.216;2022-08-21T16:21:32;4.28;;;1.98;;
74223;SDS011;62585;49.706;18.216;2022-08-21T16:23:58;2.53;;;1.40;;
74223;SDS011;62585;49.706;18.216;2022-08-21T16:26:24;2.10;;;1.35;;
74223;SDS011;62585;49.706;18.216;2022-08-21T16:28:54;2.67;;;1.70;;
74223;SDS011;62585;49.706;18.216;2022-08-21T16:31:23;2.30;;;1.35;;
74223;SDS011;62585;49.706;18.216;2022-08-21T16:33:50;2.15;;;1.15;;